Wallerville, Mississippi
Current Conditions -  °F | °C
As of 8:53 PM on Sunday 23 Nov 2014 (Local Time) from KTUP Reporting Station
Few Clouds Few Clouds  
Wind Chill: 58°   Ceiling: Unl
Heat Index: 58°   Visibility: 10mi
Dew Point: 56°   Wind: 9mph
Humidity: 93%   Direction: 180°S
Pressure: 29.54"   Gusts: NA
Location:  34.4917°N, 88.9766°W
Report Text: KTUP 240253Z 18008KT 10SM FEW035 14/13 A2954 RMK AO2 SLP999 T01440133 51012 $
Loading
Personal Weather Stations






























Interactive Weather Map New forecast layout! Learn more

10-Day Weather Forecast

Advertisements
Track Severe Weather on mobile